Time;durP1;ratioP1;P1;durP2;ratioP2;P2;SDS_P1;SDS_P2;PMS_P1;PMS_P2;Temp;Humidity;BMP_temperature;BMP_pressure;BME280_temperature;BME280_humidity;BME280_pressure;Samples;Min_cycle;Max_cycle;Signal;HPM_P1;HPM_P2
2023/12/12 00:03:37;;;;;;;1.95;1.20;;;;;;;;;;5089202;28;20415;-68
2023/12/12 00:07:19;;;;;;;1.70;1.00;;;;;;;;;;5082913;28;20052;-66
2023/12/12 00:10:59;;;;;;;1.77;1.05;;;;;;;;;;5086946;28;20469;-67
2023/12/12 00:14:40;;;;;;;1.98;1.08;;;;;;;;;;5091347;28;20059;-67
2023/12/12 00:18:20;;;;;;;1.95;1.00;;;;;;;;;;5086199;28;20048;-67
2023/12/12 00:22:00;;;;;;;3.88;1.02;;;;;;;;;;5088813;27;20200;-66
2023/12/12 00:25:41;;;;;;;1.55;1.08;;;;;;;;;;5089067;28;20044;-67
2023/12/12 00:29:21;;;;;;;1.92;1.17;;;;;;;;;;5086813;28;20132;-66
2023/12/12 00:33:02;;;;;;;3.13;1.00;;;;;;;;;;5092465;28;20068;-66
2023/12/12 00:36:42;;;;;;;1.48;0.90;;;;;;;;;;5086166;28;20323;-68
2023/12/12 00:40:22;;;;;;;2.03;1.00;;;;;;;;;;5088447;28;20044;-68
2023/12/12 00:44:03;;;;;;;1.00;0.75;;;;;;;;;;5088827;28;20043;-69
2023/12/12 00:47:44;;;;;;;1.27;0.90;;;;;;;;;;5085364;28;20403;-69
2023/12/12 00:51:25;;;;;;;1.77;0.95;;;;;;;;;;5088704;28;20052;-67
2023/12/12 00:55:05;;;;;;;2.33;1.10;;;;;;;;;;5087221;28;20056;-66
2023/12/12 00:58:45;;;;;;;1.40;0.90;;;;;;;;;;5090071;28;20428;-65
2023/12/12 01:02:26;;;;;;;1.33;1.10;;;;;;;;;;5089228;28;20054;-67
2023/12/12 01:06:06;;;;;;;2.03;1.10;;;;;;;;;;5083942;28;20448;-67
2023/12/12 01:09:47;;;;;;;2.10;0.80;;;;;;;;;;5090257;28;20084;-65
2023/12/12 01:13:27;;;;;;;1.35;0.95;;;;;;;;;;5082840;28;20404;-66
2023/12/12 01:17:07;;;;;;;1.50;0.90;;;;;;;;;;5086233;28;20040;-66
2023/12/12 01:20:48;;;;;;;3.30;1.08;;;;;;;;;;5095217;27;20083;-66
2023/12/12 01:24:11;;;;;;;1.58;1.00;;;;;;;;;;5081981;28;20052;-65
2023/12/12 01:27:52;;;;;;;2.50;1.30;;;;;;;;;;5090595;27;20064;-67
2023/12/12 01:31:32;;;;;;;3.58;1.50;;;;;;;;;;5082849;28;20046;-64
2023/12/12 01:35:12;;;;;;;2.03;1.20;;;;;;;;;;5090988;28;20041;-67
2023/12/12 01:38:53;;;;;;;2.55;1.20;;;;;;;;;;5087511;28;20100;-65
2023/12/12 01:42:33;;;;;;;2.03;1.20;;;;;;;;;;5097256;27;20101;-67
2023/12/12 01:46:14;;;;;;;2.00;1.20;;;;;;;;;;5081889;28;20051;-66
2023/12/12 01:49:55;;;;;;;1.80;1.30;;;;;;;;;;5081268;28;20055;-65
2023/12/12 01:53:35;;;;;;;1.98;1.45;;;;;;;;;;5082437;28;20088;-64
2023/12/12 01:57:15;;;;;;;2.75;1.17;;;;;;;;;;5081609;28;20072;-67
2023/12/12 02:00:56;;;;;;;2.60;1.55;;;;;;;;;;5082770;28;20048;-67
2023/12/12 02:04:36;;;;;;;8.48;1.50;;;;;;;;;;5072429;28;20153;-67
2023/12/12 02:08:16;;;;;;;2.17;1.35;;;;;;;;;;5084265;28;20047;-64
2023/12/12 02:11:58;;;;;;;3.95;1.45;;;;;;;;;;5084866;28;20218;-69
2023/12/12 02:15:38;;;;;;;2.75;1.50;;;;;;;;;;5088625;28;20051;-68
2023/12/12 02:19:19;;;;;;;2.70;1.48;;;;;;;;;;5090667;28;20064;-68
2023/12/12 02:22:59;;;;;;;2.72;1.50;;;;;;;;;;5085374;28;20063;-67
2023/12/12 02:26:41;;;;;;;3.30;1.40;;;;;;;;;;5077842;28;20303;-66
2023/12/12 02:30:21;;;;;;;3.80;1.83;;;;;;;;;;5085839;28;20052;-69
2023/12/12 02:34:02;;;;;;;3.45;1.60;;;;;;;;;;5077937;28;20039;-66
2023/12/12 02:37:42;;;;;;;2.47;1.50;;;;;;;;;;5090078;28;20492;-67
2023/12/12 02:41:24;;;;;;;3.83;1.50;;;;;;;;;;5081089;28;20160;-65
2023/12/12 02:45:04;;;;;;;2.15;1.38;;;;;;;;;;5079009;28;20075;-66
2023/12/12 02:48:45;;;;;;;3.17;1.50;;;;;;;;;;5080564;28;20502;-65
2023/12/12 02:52:25;;;;;;;2.47;1.50;;;;;;;;;;5089361;28;20036;-68
2023/12/12 02:56:05;;;;;;;3.35;1.60;;;;;;;;;;5077728;28;20051;-67
2023/12/12 02:58:51;;;;;;;2.28;1.45;;;;;;;;;;5076464;28;20052;-67
2023/12/12 03:01:17;;;;;;;3.40;1.70;;;;;;;;;;5085574;28;20043;-65
2023/12/12 03:03:44;;;;;;;2.95;1.63;;;;;;;;;;5081192;28;20571;-66
2023/12/12 03:06:09;;;;;;;2.97;1.50;;;;;;;;;;5075670;28;20048;-66
2023/12/12 03:08:36;;;;;;;3.53;1.42;;;;;;;;;;5086228;28;20071;-65
2023/12/12 03:11:02;;;;;;;2.40;1.60;;;;;;;;;;5084309;28;20052;-67
2023/12/12 03:13:29;;;;;;;2.78;1.40;;;;;;;;;;5082551;28;20048;-66
2023/12/12 03:15:55;;;;;;;3.58;1.73;;;;;;;;;;5094409;28;20061;-66
2023/12/12 03:18:23;;;;;;;3.50;1.42;;;;;;;;;;5086864;28;20098;-68
2023/12/12 03:20:48;;;;;;;2.80;1.50;;;;;;;;;;5074128;28;20497;-68
2023/12/12 03:23:15;;;;;;;2.85;1.60;;;;;;;;;;5083926;28;20060;-66
2023/12/12 03:25:42;;;;;;;4.68;1.75;;;;;;;;;;5085572;28;20048;-69
2023/12/12 03:28:09;;;;;;;2.83;1.45;;;;;;;;;;5080125;28;20059;-65
2023/12/12 03:30:36;;;;;;;3.00;1.70;;;;;;;;;;5126970;27;20056;-66
2023/12/12 03:33:03;;;;;;;2.70;1.65;;;;;;;;;;5083394;28;20067;-65
2023/12/12 03:35:29;;;;;;;2.97;1.40;;;;;;;;;;5084103;28;20128;-65
2023/12/12 03:37:55;;;;;;;2.78;1.67;;;;;;;;;;5083053;28;20073;-67
2023/12/12 03:40:23;;;;;;;3.45;1.77;;;;;;;;;;5086054;28;20055;-67
2023/12/12 03:42:49;;;;;;;2.83;1.70;;;;;;;;;;5080453;28;20040;-68
2023/12/12 03:45:15;;;;;;;3.20;1.70;;;;;;;;;;5081349;28;20312;-67
2023/12/12 03:47:42;;;;;;;4.28;2.22;;;;;;;;;;5097407;28;20109;-68
2023/12/12 03:50:09;;;;;;;3.17;1.50;;;;;;;;;;5095118;28;20076;-64
2023/12/12 03:52:35;;;;;;;3.38;1.70;;;;;;;;;;5084556;28;20052;-66
2023/12/12 03:55:01;;;;;;;5.07;1.70;;;;;;;;;;5088863;28;20055;-66
2023/12/12 03:57:27;;;;;;;3.10;1.80;;;;;;;;;;5085705;28;20539;-68
2023/12/12 03:59:53;;;;;;;3.53;1.70;;;;;;;;;;5082027;28;20306;-67
2023/12/12 04:02:19;;;;;;;4.32;1.83;;;;;;;;;;5084537;28;20566;-68
2023/12/12 04:04:45;;;;;;;4.15;1.80;;;;;;;;;;5083450;28;20056;-65
2023/12/12 04:07:11;;;;;;;6.07;1.80;;;;;;;;;;5118320;27;20048;-67
2023/12/12 04:09:37;;;;;;;3.58;1.75;;;;;;;;;;5082299;28;20112;-66
2023/12/12 04:12:03;;;;;;;4.85;1.70;;;;;;;;;;5078715;28;20040;-66
2023/12/12 04:14:29;;;;;;;3.30;1.80;;;;;;;;;;5086397;28;20082;-67
2023/12/12 04:16:58;;;;;;;4.25;1.70;;;;;;;;;;5086138;28;20051;-65
2023/12/12 04:19:24;;;;;;;4.05;1.88;;;;;;;;;;5085648;28;20049;-65
2023/12/12 04:21:51;;;;;;;3.30;1.70;;;;;;;;;;5088928;28;21224;-67
2023/12/12 04:24:17;;;;;;;3.05;1.60;;;;;;;;;;5081974;28;20055;-66
2023/12/12 04:26:43;;;;;;;3.65;1.80;;;;;;;;;;5083211;28;20098;-66
2023/12/12 04:29:09;;;;;;;6.60;2.15;;;;;;;;;;5085684;28;20487;-68
2023/12/12 04:31:36;;;;;;;3.45;1.75;;;;;;;;;;5113492;27;20165;-68
2023/12/12 04:34:04;;;;;;;4.07;1.90;;;;;;;;;;5077296;28;20121;-67
2023/12/12 04:36:33;;;;;;;4.60;1.80;;;;;;;;;;5081767;28;20052;-67
2023/12/12 04:38:59;;;;;;;2.78;1.65;;;;;;;;;;5087249;28;20054;-65
2023/12/12 04:41:27;;;;;;;6.57;1.80;;;;;;;;;;5088886;28;20139;-66
2023/12/12 04:43:54;;;;;;;3.78;1.83;;;;;;;;;;5084654;28;20300;-65
2023/12/12 04:46:21;;;;;;;4.13;2.10;;;;;;;;;;5082055;28;20419;-67
2023/12/12 04:48:47;;;;;;;5.03;2.05;;;;;;;;;;5085123;28;20039;-67
2023/12/12 04:51:14;;;;;;;3.97;1.80;;;;;;;;;;5085882;28;20481;-65
2023/12/12 04:53:39;;;;;;;6.05;1.90;;;;;;;;;;5079216;28;20060;-66
2023/12/12 04:56:06;;;;;;;4.10;1.90;;;;;;;;;;5088278;28;20513;-67
2023/12/12 04:58:32;;;;;;;5.13;1.45;;;;;;;;;;5107221;27;20543;-66
2023/12/12 05:00:58;;;;;;;5.88;1.75;;;;;;;;;;5089233;28;20142;-66
2023/12/12 05:03:24;;;;;;;2.60;1.60;;;;;;;;;;5085609;28;20048;-67
2023/12/12 05:05:53;;;;;;;4.03;2.22;;;;;;;;;;5082148;28;20505;-65
2023/12/12 05:08:19;;;;;;;5.72;2.00;;;;;;;;;;5083587;28;20131;-66
2023/12/12 05:10:45;;;;;;;4.30;1.80;;;;;;;;;;5076181;28;20547;-65
2023/12/12 05:13:11;;;;;;;4.75;1.85;;;;;;;;;;5085234;28;20040;-65
2023/12/12 05:15:37;;;;;;;3.60;1.90;;;;;;;;;;5081923;28;20192;-66
2023/12/12 05:18:03;;;;;;;3.63;2.00;;;;;;;;;;5084614;28;20535;-65
2023/12/12 05:20:29;;;;;;;3.67;2.00;;;;;;;;;;5080718;28;20055;-65
2023/12/12 05:22:55;;;;;;;4.05;2.30;;;;;;;;;;5085782;28;20044;-66
2023/12/12 05:25:21;;;;;;;5.38;2.10;;;;;;;;;;5083331;28;20503;-66
2023/12/12 05:27:47;;;;;;;4.72;1.92;;;;;;;;;;5078292;28;20062;-65
2023/12/12 05:30:14;;;;;;;4.13;1.90;;;;;;;;;;5080257;28;20056;-66
2023/12/12 05:32:40;;;;;;;3.33;1.90;;;;;;;;;;5082379;28;20474;-67
2023/12/12 05:35:08;;;;;;;4.88;2.20;;;;;;;;;;5083251;28;20127;-66
2023/12/12 05:37:36;;;;;;;3.28;1.88;;;;;;;;;;5087429;28;20261;-66
2023/12/12 05:40:08;;;;;;;6.53;2.38;;;;;;;;;;5082627;28;20052;-67
2023/12/12 05:42:33;;;;;;;3.92;2.15;;;;;;;;;;5098195;28;20136;-65
2023/12/12 05:45:00;;;;;;;5.05;2.30;;;;;;;;;;5083614;28;20063;-66
2023/12/12 05:47:26;;;;;;;4.32;2.20;;;;;;;;;;5088201;28;20048;-66
2023/12/12 05:50:33;;;;;;;6.30;2.10;;;;;;;;;;5066458;28;20056;-66
2023/12/12 05:54:14;;;;;;;4.70;2.03;;;;;;;;;;5085042;28;20426;-67
2023/12/12 05:57:55;;;;;;;5.07;2.00;;;;;;;;;;5082944;28;20052;-65
2023/12/12 06:01:36;;;;;;;10.00;2.00;;;;;;;;;;5079703;28;20456;-67
2023/12/12 06:05:16;;;;;;;8.23;2.00;;;;;;;;;;5077850;28;20385;-65
2023/12/12 06:09:00;;;;;;;4.43;2.03;;;;;;;;;;5084023;28;20127;-67
2023/12/12 06:12:39;;;;;;;5.63;2.08;;;;;;;;;;5078288;28;20048;-66
2023/12/12 06:16:20;;;;;;;6.57;2.20;;;;;;;;;;5086109;28;20044;-66
2023/12/12 06:20:02;;;;;;;4.50;2.28;;;;;;;;;;5087174;28;20096;-66
2023/12/12 06:23:43;;;;;;;10.43;2.30;;;;;;;;;;5083804;28;20127;-66
2023/12/12 06:27:23;;;;;;;8.52;2.60;;;;;;;;;;5086107;28;20079;-66
2023/12/12 06:31:04;;;;;;;8.93;2.40;;;;;;;;;;5093137;28;20054;-69
2023/12/12 06:34:45;;;;;;;13.27;2.70;;;;;;;;;;5081094;28;20178;-68
2023/12/12 06:38:25;;;;;;;9.15;2.47;;;;;;;;;;5086717;28;20484;-68
2023/12/12 06:42:06;;;;;;;6.72;2.42;;;;;;;;;;5075505;28;20086;-66
2023/12/12 06:45:48;;;;;;;4.63;2.40;;;;;;;;;;5078183;28;20139;-66
2023/12/12 06:49:28;;;;;;;5.07;1.77;;;;;;;;;;5077224;28;20159;-64
2023/12/12 06:53:08;;;;;;;5.75;2.33;;;;;;;;;;5086785;28;20546;-65
2023/12/12 06:56:49;;;;;;;6.80;2.38;;;;;;;;;;5077213;28;20399;-64
2023/12/12 07:00:31;;;;;;;4.18;2.13;;;;;;;;;;5082712;28;20126;-63
2023/12/12 07:04:11;;;;;;;6.65;2.30;;;;;;;;;;5077901;28;20105;-65
2023/12/12 07:07:51;;;;;;;10.43;2.70;;;;;;;;;;5070798;28;20100;-65
2023/12/12 07:11:32;;;;;;;7.50;2.58;;;;;;;;;;5073632;28;20059;-65
2023/12/12 07:15:12;;;;;;;7.93;2.20;;;;;;;;;;5083750;28;20052;-63
2023/12/12 07:18:53;;;;;;;9.80;1.98;;;;;;;;;;5094213;28;20053;-64
2023/12/12 07:22:33;;;;;;;6.25;2.03;;;;;;;;;;5077690;28;20060;-66
2023/12/12 07:26:13;;;;;;;10.43;2.70;;;;;;;;;;5079540;28;20044;-64
2023/12/12 07:29:53;;;;;;;9.80;2.70;;;;;;;;;;5086036;28;20134;-64
2023/12/12 07:33:34;;;;;;;10.77;2.40;;;;;;;;;;5083623;28;20132;-64
2023/12/12 07:37:14;;;;;;;13.15;2.75;;;;;;;;;;5083997;28;20063;-62
2023/12/12 07:40:55;;;;;;;8.93;2.50;;;;;;;;;;5077147;28;20923;-68
2023/12/12 07:43:56;;;;;;;21.42;8.07;;;;;;;;;;5075534;28;20083;-63
2023/12/12 07:46:23;;;;;;;10.68;2.90;;;;;;;;;;5081962;28;20048;-65
2023/12/12 07:48:49;;;;;;;7.22;2.42;;;;;;;;;;5088666;28;20237;-63
2023/12/12 07:51:17;;;;;;;10.57;2.50;;;;;;;;;;5094106;28;20047;-62
2023/12/12 07:53:43;;;;;;;5.35;2.30;;;;;;;;;;5089883;28;20507;-63
2023/12/12 07:56:09;;;;;;;9.40;2.63;;;;;;;;;;5083479;28;20045;-62
2023/12/12 07:58:35;;;;;;;16.25;2.58;;;;;;;;;;5084387;28;20264;-62
2023/12/12 08:01:03;;;;;;;9.02;2.55;;;;;;;;;;5084697;28;20055;-63
2023/12/12 08:03:30;;;;;;;6.25;2.58;;;;;;;;;;5083549;28;20040;-62
2023/12/12 08:05:56;;;;;;;4.43;2.20;;;;;;;;;;5082685;28;20044;-64
2023/12/12 08:08:22;;;;;;;10.32;2.78;;;;;;;;;;5084128;28;20056;-63
2023/12/12 08:10:48;;;;;;;12.88;2.55;;;;;;;;;;5083185;28;20056;-63
2023/12/12 08:13:15;;;;;;;8.77;2.50;;;;;;;;;;5082660;28;20412;-63
2023/12/12 08:15:41;;;;;;;11.13;2.65;;;;;;;;;;5083654;28;20090;-64
2023/12/12 08:18:09;;;;;;;7.45;2.72;;;;;;;;;;5070822;28;20389;-61
2023/12/12 08:20:35;;;;;;;6.47;2.53;;;;;;;;;;5085665;28;20399;-63
2023/12/12 08:23:01;;;;;;;10.30;2.92;;;;;;;;;;5085880;28;20063;-63
2023/12/12 08:25:28;;;;;;;12.18;3.35;;;;;;;;;;5083161;28;20610;-64
2023/12/12 08:27:54;;;;;;;7.30;2.80;;;;;;;;;;5084078;28;20044;-64
2023/12/12 08:30:20;;;;;;;16.23;3.10;;;;;;;;;;5085014;28;20059;-62
2023/12/12 08:32:47;;;;;;;5.47;2.30;;;;;;;;;;5084973;28;20044;-63
2023/12/12 08:35:14;;;;;;;9.27;2.95;;;;;;;;;;5082219;28;20040;-64
2023/12/12 08:37:41;;;;;;;9.98;3.03;;;;;;;;;;5092878;28;20052;-62
2023/12/12 08:40:09;;;;;;;10.23;2.88;;;;;;;;;;5092961;28;20297;-63
2023/12/12 08:42:36;;;;;;;13.52;3.00;;;;;;;;;;5084854;28;20055;-62
2023/12/12 08:45:03;;;;;;;19.60;3.92;;;;;;;;;;5087099;28;20746;-64
2023/12/12 08:47:29;;;;;;;14.73;3.20;;;;;;;;;;5082868;28;20052;-64
2023/12/12 08:50:36;;;;;;;14.00;2.85;;;;;;;;;;5093742;28;20449;-66
2023/12/12 08:54:17;;;;;;;14.50;2.50;;;;;;;;;;5088746;28;20134;-62
2023/12/12 08:57:59;;;;;;;11.88;2.58;;;;;;;;;;5086413;28;20048;-63
2023/12/12 09:01:40;;;;;;;10.25;2.47;;;;;;;;;;5084925;28;20127;-65
2023/12/12 09:05:25;;;;;;;10.15;2.38;;;;;;;;;;5088430;28;20469;-64
2023/12/12 09:09:06;;;;;;;4.93;2.35;;;;;;;;;;5083240;28;20049;-64
2023/12/12 09:12:47;;;;;;;7.88;2.40;;;;;;;;;;5084681;28;20381;-64
2023/12/12 09:16:28;;;;;;;8.98;2.33;;;;;;;;;;5085561;28;20048;-64
2023/12/12 09:20:09;;;;;;;4.50;2.05;;;;;;;;;;5083130;28;20056;-64
2023/12/12 09:23:50;;;;;;;4.95;2.20;;;;;;;;;;5083860;28;20161;-63
2023/12/12 09:27:30;;;;;;;9.30;2.05;;;;;;;;;;5085385;28;20060;-63
2023/12/12 09:31:13;;;;;;;6.05;2.40;;;;;;;;;;5092637;28;20048;-62
2023/12/12 09:34:54;;;;;;;6.55;2.53;;;;;;;;;;5086947;28;20075;-64
2023/12/12 09:38:36;;;;;;;5.40;2.20;;;;;;;;;;5087350;28;20585;-64
2023/12/12 09:42:17;;;;;;;4.22;1.90;;;;;;;;;;5090437;28;20051;-61
2023/12/12 09:45:58;;;;;;;6.00;2.08;;;;;;;;;;5087454;28;20126;-63
2023/12/12 09:49:39;;;;;;;6.80;2.63;;;;;;;;;;5080618;28;20273;-64
2023/12/12 09:53:20;;;;;;;5.05;1.90;;;;;;;;;;5086864;28;20071;-62
2023/12/12 09:57:00;;;;;;;4.03;1.50;;;;;;;;;;5088855;28;20043;-67
2023/12/12 10:00:40;;;;;;;5.00;1.60;;;;;;;;;;5077822;28;20239;-63
2023/12/12 10:04:21;;;;;;;4.80;1.85;;;;;;;;;;5087337;28;20044;-62
2023/12/12 10:08:01;;;;;;;4.45;1.50;;;;;;;;;;5087974;28;20505;-66
2023/12/12 10:11:41;;;;;;;2.38;1.38;;;;;;;;;;5094447;28;20044;-68
2023/12/12 10:15:22;;;;;;;5.05;1.70;;;;;;;;;;5088638;28;20056;-64
2023/12/12 10:19:02;;;;;;;3.03;1.20;;;;;;;;;;5080871;28;20150;-64
2023/12/12 10:22:50;;;;;;;3.78;1.30;;;;;;;;;;5088312;28;20051;-64
2023/12/12 10:26:31;;;;;;;3.70;1.20;;;;;;;;;;5105016;28;20047;-64
2023/12/12 10:30:11;;;;;;;2.42;1.30;;;;;;;;;;5080191;28;20445;-64
2023/12/12 10:33:52;;;;;;;2.78;1.40;;;;;;;;;;5093359;28;20102;-66
2023/12/12 10:37:32;;;;;;;10.23;1.50;;;;;;;;;;5093126;28;20047;-63
2023/12/12 10:41:14;;;;;;;15.40;1.48;;;;;;;;;;5081538;28;20086;-64
2023/12/12 10:44:54;;;;;;;4.55;1.40;;;;;;;;;;5085462;28;20048;-67
2023/12/12 10:48:34;;;;;;;2.67;1.30;;;;;;;;;;5087365;28;20419;-65
2023/12/12 10:52:18;;;;;;;4.55;1.13;;;;;;;;;;5089490;28;20187;-66
2023/12/12 10:56:00;;;;;;;5.22;1.42;;;;;;;;;;5077511;28;20044;-66
2023/12/12 10:59:40;;;;;;;4.97;1.23;;;;;;;;;;5080013;28;20040;-65
2023/12/12 11:03:21;;;;;;;4.88;1.25;;;;;;;;;;5083637;28;20035;-63
2023/12/12 11:07:01;;;;;;;2.60;1.40;;;;;;;;;;5079356;28;20044;-63
2023/12/12 11:10:42;;;;;;;4.60;1.40;;;;;;;;;;5083336;28;20066;-65
2023/12/12 11:14:24;;;;;;;3.58;1.30;;;;;;;;;;5086697;28;20155;-63
2023/12/12 11:18:08;;;;;;;2.65;1.42;;;;;;;;;;5087382;28;20450;-67
2023/12/12 11:22:03;;;;;;;6.22;1.48;;;;;;;;;;5077651;28;20055;-67
2023/12/12 11:25:43;;;;;;;4.50;1.55;;;;;;;;;;5074488;28;20064;-63
2023/12/12 11:29:24;;;;;;;5.53;1.85;;;;;;;;;;5086305;28;20507;-64
2023/12/12 11:33:07;;;;;;;4.57;1.58;;;;;;;;;;5075271;28;20183;-63
2023/12/12 11:36:48;;;;;;;3.20;1.60;;;;;;;;;;5077667;28;20044;-64
2023/12/12 11:40:29;;;;;;;3.58;1.20;;;;;;;;;;5087357;28;20051;-66
2023/12/12 11:44:09;;;;;;;4.22;1.35;;;;;;;;;;5088183;28;20048;-64
2023/12/12 11:47:51;;;;;;;3.35;1.20;;;;;;;;;;5080690;28;20040;-62
2023/12/12 11:51:30;;;;;;;6.85;1.40;;;;;;;;;;5087164;28;20433;-64
2023/12/12 11:55:14;;;;;;;4.75;1.60;;;;;;;;;;5078061;28;20785;-66
2023/12/12 11:58:54;;;;;;;6.82;1.55;;;;;;;;;;5080446;28;20549;-64
2023/12/12 12:02:35;;;;;;;2.10;1.33;;;;;;;;;;5071294;28;20082;-65
2023/12/12 12:06:14;;;;;;;2.40;1.40;;;;;;;;;;5090921;28;20062;-66
2023/12/12 12:09:56;;;;;;;3.17;1.30;;;;;;;;;;5109363;28;20039;-66
2023/12/12 12:13:37;;;;;;;2.95;1.40;;;;;;;;;;5090554;28;20070;-65
2023/12/12 12:17:18;;;;;;;5.57;1.80;;;;;;;;;;5082933;28;20153;-64
2023/12/12 12:21:03;;;;;;;4.70;1.40;;;;;;;;;;5093002;27;20487;-64
2023/12/12 12:24:44;;;;;;;5.10;1.70;;;;;;;;;;5088295;28;20043;-68
2023/12/12 12:28:31;;;;;;;7.30;1.63;;;;;;;;;;5087932;28;20054;-62
2023/12/12 12:31:52;;;;;;;;;;;;;;;;;;5088555;28;20082;-67
2023/12/12 12:35:49;;;;;;;3.13;1.60;;;;;;;;;;5090554;28;19927;-65
2023/12/12 12:39:29;;;;;;;3.08;1.30;;;;;;;;;;5090871;28;20410;-65
2023/12/12 12:42:33;;;;;;;4.80;1.60;;;;;;;;;;5080471;28;20135;-65
2023/12/12 12:46:13;;;;;;;3.65;1.25;;;;;;;;;;5079391;28;20055;-63
2023/12/12 12:49:54;;;;;;;5.45;1.77;;;;;;;;;;5096186;28;20574;-62
2023/12/12 12:53:34;;;;;;;4.80;1.40;;;;;;;;;;5099718;28;20040;-66
2023/12/12 12:57:14;;;;;;;3.70;1.40;;;;;;;;;;5090461;28;20048;-64
2023/12/12 13:00:56;;;;;;;4.07;1.67;;;;;;;;;;5092637;27;20063;-71
2023/12/12 13:04:40;;;;;;;8.57;1.30;;;;;;;;;;5087247;28;20044;-65
2023/12/12 13:08:22;;;;;;;6.75;1.60;;;;;;;;;;5083814;28;20120;-65
2023/12/12 13:12:04;;;;;;;3.17;1.40;;;;;;;;;;5090842;28;20106;-63
2023/12/12 13:15:44;;;;;;;5.78;1.63;;;;;;;;;;5081407;28;20048;-63
2023/12/12 13:19:26;;;;;;;4.38;1.40;;;;;;;;;;5099804;28;20135;-63
2023/12/12 13:23:05;;;;;;;9.23;1.60;;;;;;;;;;5078271;28;20054;-64
2023/12/12 13:26:45;;;;;;;9.80;1.80;;;;;;;;;;5082408;28;20102;-62
2023/12/12 13:30:26;;;;;;;7.75;1.33;;;;;;;;;;5083987;28;20079;-65
2023/12/12 13:34:06;;;;;;;5.55;1.42;;;;;;;;;;5085406;28;20518;-63
2023/12/12 13:37:46;;;;;;;4.70;1.30;;;;;;;;;;5080150;28;20048;-65
2023/12/12 13:41:27;;;;;;;11.50;1.90;;;;;;;;;;5079205;28;20305;-62
2023/12/12 13:45:07;;;;;;;9.60;2.35;;;;;;;;;;5086869;28;20075;-68
2023/12/12 13:48:47;;;;;;;5.45;1.23;;;;;;;;;;5085544;28;20408;-64
2023/12/12 13:52:29;;;;;;;8.65;1.67;;;;;;;;;;5079675;28;20052;-64
2023/12/12 13:56:09;;;;;;;2.40;1.20;;;;;;;;;;5090742;28;20355;-65
2023/12/12 13:59:50;;;;;;;6.75;1.10;;;;;;;;;;5083872;28;20059;-65
2023/12/12 14:03:30;;;;;;;8.15;1.90;;;;;;;;;;5100870;28;20112;-65
2023/12/12 14:07:11;;;;;;;8.10;1.42;;;;;;;;;;5082180;28;20052;-62
2023/12/12 14:10:52;;;;;;;6.95;1.35;;;;;;;;;;5084264;28;20070;-67
2023/12/12 14:14:32;;;;;;;6.88;1.70;;;;;;;;;;5090154;28;20139;-67
2023/12/12 14:18:14;;;;;;;7.97;1.58;;;;;;;;;;5091403;28;20416;-65
2023/12/12 14:21:53;;;;;;;6.57;1.58;;;;;;;;;;5088917;28;20048;-62
2023/12/12 14:25:33;;;;;;;3.67;1.30;;;;;;;;;;5083436;28;20040;-63
2023/12/12 14:29:17;;;;;;;3.20;1.60;;;;;;;;;;5090534;28;20126;-64
2023/12/12 14:32:59;;;;;;;6.70;1.63;;;;;;;;;;5084282;28;20063;-65
2023/12/12 14:36:40;;;;;;;3.35;1.30;;;;;;;;;;5087520;28;20325;-63
2023/12/12 14:40:20;;;;;;;5.90;1.35;;;;;;;;;;5090442;28;20126;-65
2023/12/12 14:44:03;;;;;;;9.18;1.73;;;;;;;;;;5094001;28;20046;-63
2023/12/12 14:47:43;;;;;;;11.07;2.10;;;;;;;;;;5090185;28;20048;-63
2023/12/12 14:51:24;;;;;;;9.52;1.95;;;;;;;;;;5086898;28;20059;-64
2023/12/12 14:55:04;;;;;;;7.43;1.75;;;;;;;;;;5083212;28;20254;-63
2023/12/12 14:58:46;;;;;;;12.65;1.70;;;;;;;;;;5086860;28;20032;-65
2023/12/12 15:02:28;;;;;;;9.10;1.33;;;;;;;;;;5079093;28;20105;-64
2023/12/12 15:06:07;;;;;;;6.97;1.40;;;;;;;;;;5078243;28;20052;-64
2023/12/12 15:09:48;;;;;;;5.32;1.65;;;;;;;;;;5086460;28;20044;-64
2023/12/12 15:13:28;;;;;;;7.05;1.63;;;;;;;;;;5087232;28;20047;-65
2023/12/12 15:17:09;;;;;;;4.95;1.55;;;;;;;;;;5088404;28;20047;-66
2023/12/12 15:20:49;;;;;;;11.25;1.48;;;;;;;;;;5078785;28;20052;-64
2023/12/12 15:24:30;;;;;;;6.47;1.50;;;;;;;;;;5080007;28;20074;-63
2023/12/12 15:28:10;;;;;;;5.85;1.58;;;;;;;;;;5084256;28;20047;-69
2023/12/12 15:31:51;;;;;;;11.10;1.67;;;;;;;;;;5069046;28;20044;-63
2023/12/12 15:35:32;;;;;;;2.45;1.10;;;;;;;;;;5087481;28;20052;-64
2023/12/12 15:39:14;;;;;;;7.40;1.30;;;;;;;;;;5086258;28;20048;-65
2023/12/12 15:42:54;;;;;;;4.85;1.20;;;;;;;;;;5089548;28;20047;-64
2023/12/12 15:46:34;;;;;;;3.28;1.38;;;;;;;;;;5090803;28;20502;-66
2023/12/12 15:50:14;;;;;;;5.72;1.38;;;;;;;;;;5087887;28;20047;-63
2023/12/12 15:53:55;;;;;;;2.67;1.17;;;;;;;;;;5082776;28;20123;-66
2023/12/12 15:57:37;;;;;;;7.72;1.63;;;;;;;;;;5091422;27;20534;-67
2023/12/12 16:01:17;;;;;;;19.23;2.30;;;;;;;;;;5085177;28;20193;-65
2023/12/12 16:04:57;;;;;;;4.20;1.55;;;;;;;;;;5086918;28;20070;-67
2023/12/12 16:08:38;;;;;;;4.72;1.35;;;;;;;;;;5085870;28;20048;-64
2023/12/12 16:12:19;;;;;;;5.15;1.30;;;;;;;;;;5094119;28;20039;-65
2023/12/12 16:15:19;;;;;;;6.03;1.13;;;;;;;;;;5092002;28;20052;-65
2023/12/12 16:17:46;;;;;;;13.60;1.60;;;;;;;;;;5090301;28;20060;-65
2023/12/12 16:20:12;;;;;;;7.07;1.30;;;;;;;;;;5081860;28;20323;-65
2023/12/12 16:23:18;;;;;;;4.45;1.20;;;;;;;;;;5075611;28;20051;-67
2023/12/12 16:26:59;;;;;;;4.75;1.35;;;;;;;;;;5079790;28;20613;-65
2023/12/12 16:30:39;;;;;;;3.20;1.13;;;;;;;;;;5085561;28;20082;-65
2023/12/12 16:34:19;;;;;;;5.68;1.40;;;;;;;;;;5075015;28;20461;-64
2023/12/12 16:38:05;;;;;;;7.05;1.20;;;;;;;;;;5081267;28;20091;-64
2023/12/12 16:41:46;;;;;;;3.05;1.40;;;;;;;;;;5088688;28;20389;-66
2023/12/12 16:45:26;;;;;;;9.07;1.50;;;;;;;;;;5084681;28;20048;-64
2023/12/12 16:49:07;;;;;;;3.30;1.10;;;;;;;;;;5082746;27;20051;-66
2023/12/12 16:52:47;;;;;;;2.35;1.20;;;;;;;;;;5063330;28;20414;-66
2023/12/12 16:56:29;;;;;;;5.57;1.20;;;;;;;;;;5079629;28;20080;-66
2023/12/12 17:00:10;;;;;;;3.13;1.15;;;;;;;;;;5079470;28;20036;-65
2023/12/12 17:03:50;;;;;;;2.55;1.10;;;;;;;;;;5086669;28;20399;-64
2023/12/12 17:07:30;;;;;;;7.00;1.30;;;;;;;;;;5078467;28;20048;-68
2023/12/12 17:11:11;;;;;;;5.57;1.42;;;;;;;;;;5079595;28;20272;-66
2023/12/12 17:14:51;;;;;;;7.72;1.60;;;;;;;;;;5078267;28;20051;-67
2023/12/12 17:18:31;;;;;;;7.53;1.60;;;;;;;;;;5065110;28;20052;-67
2023/12/12 17:22:12;;;;;;;10.60;1.67;;;;;;;;;;5067327;28;20142;-69
2023/12/12 17:25:54;;;;;;;7.40;1.55;;;;;;;;;;5078386;28;20055;-65
2023/12/12 17:29:34;;;;;;;8.43;1.35;;;;;;;;;;5072582;27;20088;-66
2023/12/12 17:33:15;;;;;;;5.85;1.60;;;;;;;;;;5058960;28;20048;-66
2023/12/12 17:36:55;;;;;;;8.68;1.65;;;;;;;;;;5080224;27;20087;-67
2023/12/12 17:40:40;;;;;;;6.88;2.00;;;;;;;;;;5071774;28;20289;-65
2023/12/12 17:44:17;;;;;;;4.57;1.45;;;;;;;;;;5062912;28;20040;-66
2023/12/12 17:47:57;;;;;;;5.90;1.65;;;;;;;;;;5079333;28;20086;-67
2023/12/12 17:51:38;;;;;;;4.05;1.70;;;;;;;;;;5074762;28;20406;-66
2023/12/12 17:54:40;;;;;;;3.53;1.55;;;;;;;;;;5060176;28;20118;-66
2023/12/12 17:57:46;;;;;;;6.97;1.63;;;;;;;;;;5072924;28;20043;-68
2023/12/12 18:01:27;;;;;;;9.80;1.55;;;;;;;;;;5078553;28;20205;-68
2023/12/12 18:05:07;;;;;;;9.15;1.70;;;;;;;;;;5073723;28;20066;-69
2023/12/12 18:08:47;;;;;;;4.80;1.63;;;;;;;;;;5079995;28;20442;-67
2023/12/12 18:12:28;;;;;;;3.67;1.45;;;;;;;;;;5079741;28;20048;-69
2023/12/12 18:16:08;;;;;;;7.20;1.67;;;;;;;;;;5077718;28;20075;-64
2023/12/12 18:19:48;;;;;;;6.45;1.88;;;;;;;;;;5079437;27;20090;-68
2023/12/12 18:23:29;;;;;;;4.50;1.58;;;;;;;;;;5076033;28;20090;-67
2023/12/12 18:27:09;;;;;;;5.25;1.42;;;;;;;;;;5077715;28;20055;-66
2023/12/12 18:30:51;;;;;;;6.60;1.83;;;;;;;;;;5078655;28;20070;-67
2023/12/12 18:34:30;;;;;;;5.68;1.50;;;;;;;;;;5077312;28;20097;-66
2023/12/12 18:38:11;;;;;;;10.02;1.60;;;;;;;;;;5073212;28;20062;-66
2023/12/12 18:41:51;;;;;;;3.70;1.65;;;;;;;;;;5075055;28;20090;-69
2023/12/12 18:45:35;;;;;;;7.95;1.60;;;;;;;;;;5071466;28;20035;-66
2023/12/12 18:49:14;;;;;;;9.95;2.05;;;;;;;;;;5069133;28;20036;-65
2023/12/12 18:52:56;;;;;;;9.43;1.98;;;;;;;;;;5068468;28;20379;-66
2023/12/12 18:56:36;;;;;;;5.80;1.90;;;;;;;;;;5076957;28;20764;-66
2023/12/12 19:00:15;;;;;;;6.18;1.75;;;;;;;;;;5059409;28;20094;-67
2023/12/12 19:03:56;;;;;;;6.85;1.98;;;;;;;;;;5091645;28;20124;-69
2023/12/12 19:07:36;;;;;;;8.00;2.10;;;;;;;;;;5071509;28;20555;-68
2023/12/12 19:11:19;;;;;;;4.80;1.83;;;;;;;;;;5040213;28;20947;-67
2023/12/12 19:14:58;;;;;;;7.75;2.00;;;;;;;;;;5048379;28;20143;-68
2023/12/12 19:18:39;;;;;;;10.20;2.42;;;;;;;;;;5044507;28;20037;-68
2023/12/12 19:22:20;;;;;;;6.22;1.88;;;;;;;;;;5075097;28;20306;-68
2023/12/12 19:26:18;;;;;;;5.80;2.03;;;;;;;;;;5071663;28;20098;-67
2023/12/12 19:30:00;;;;;;;7.00;1.83;;;;;;;;;;5075713;28;20056;-68
2023/12/12 19:33:42;;;;;;;5.45;1.92;;;;;;;;;;5078027;28;20044;-71
2023/12/12 19:37:23;;;;;;;7.57;1.95;;;;;;;;;;5077220;28;20069;-67
2023/12/12 19:41:04;;;;;;;5.55;1.75;;;;;;;;;;5076901;28;20108;-67
2023/12/12 19:44:44;;;;;;;5.85;2.33;;;;;;;;;;5086297;28;20044;-69
2023/12/12 19:48:25;;;;;;;5.60;2.05;;;;;;;;;;5081032;28;20468;-68
2023/12/12 19:52:05;;;;;;;7.88;2.30;;;;;;;;;;5074003;28;20101;-68
2023/12/12 19:55:45;;;;;;;6.72;2.03;;;;;;;;;;5076163;28;20497;-69